SAS87F ENGM-EKCH
Flight info
| Callsign | SAS87F |
|---|---|
| Flight time | 0h 58m |
| Altitude | 35000 |
| Route | OKSAT L996 KELIN DCT TOPLA L996 ERNOV |
| Aircraft | A319/M-SDE3FGIJ1RWXY/LB1 |
Departure
| Time | 2026-05-05 13:50 |
|---|---|
| Airport | Oslo-Gardermoen International Airport (ENGM) |
Arrival
| Time | 2026-05-05 14:48 |
|---|---|
| Airport | Copenhagen Kastrup Airport (EKCH) |
| Time | Latitude | Longitude | Altitude | Speed | Heading |
|---|---|---|---|---|---|
| 2026-05-05 13:16 | 60.19532 | 11.09741 | 679 ft | 0 kts | 193° |
| 2026-05-05 13:39 | 60.19547 | 11.09748 | 676 ft | 4 kts | 193° |
| 2026-05-05 13:40 | 60.19570 | 11.09759 | 677 ft | 2 kts | 194° |
| 2026-05-05 13:40 | 60.19593 | 11.09765 | 679 ft | 4 kts | 164° |
| 2026-05-05 13:40 | 60.19615 | 11.09738 | 678 ft | 4 kts | 137° |
| 2026-05-05 13:40 | 60.19629 | 11.09721 | 677 ft | 2 kts | 197° |
| 2026-05-05 13:41 | 60.19653 | 11.09734 | 679 ft | 4 kts | 190° |
| 2026-05-05 13:41 | 60.19673 | 11.09743 | 679 ft | 0 kts | 197° |
| 2026-05-05 13:43 | 60.19666 | 11.09736 | 679 ft | 4 kts | 204° |
| 2026-05-05 13:43 | 60.19649 | 11.09657 | 679 ft | 9 kts | 274° |
| 2026-05-05 13:44 | 60.19664 | 11.09526 | 679 ft | 10 kts | 286° |
| 2026-05-05 13:44 | 60.19684 | 11.09393 | 677 ft | 10 kts | 287° |
| 2026-05-05 13:44 | 60.19704 | 11.09257 | 679 ft | 10 kts | 286° |
| 2026-05-05 13:44 | 60.19724 | 11.09116 | 676 ft | 9 kts | 286° |
| 2026-05-05 13:45 | 60.19735 | 11.09035 | 678 ft | 7 kts | 287° |
| 2026-05-05 13:45 | 60.19751 | 11.08925 | 678 ft | 10 kts | 285° |
| 2026-05-05 13:45 | 60.19773 | 11.08771 | 678 ft | 14 kts | 285° |
| 2026-05-05 13:45 | 60.19736 | 11.08646 | 678 ft | 13 kts | 199° |
| 2026-05-05 13:46 | 60.19634 | 11.08588 | 679 ft | 17 kts | 197° |
| 2026-05-05 13:46 | 60.19506 | 11.08514 | 679 ft | 21 kts | 195° |
| 2026-05-05 13:46 | 60.19374 | 11.08436 | 676 ft | 21 kts | 196° |
| 2026-05-05 13:46 | 60.19235 | 11.08356 | 679 ft | 23 kts | 196° |
| 2026-05-05 13:47 | 60.19100 | 11.08278 | 680 ft | 20 kts | 196° |
| 2026-05-05 13:47 | 60.18987 | 11.08215 | 681 ft | 19 kts | 196° |
| 2026-05-05 13:47 | 60.18863 | 11.08144 | 679 ft | 19 kts | 195° |
| 2026-05-05 13:47 | 60.18720 | 11.08061 | 682 ft | 20 kts | 195° |
| 2026-05-05 13:48 | 60.18582 | 11.07983 | 682 ft | 16 kts | 197° |
| 2026-05-05 13:48 | 60.18549 | 11.07809 | 682 ft | 18 kts | 285° |
| 2026-05-05 13:48 | 60.18585 | 11.07569 | 682 ft | 20 kts | 294° |
| 2026-05-05 13:48 | 60.18680 | 11.07479 | 681 ft | 5 kts | 12° |
| 2026-05-05 13:49 | 60.18680 | 11.07480 | 681 ft | 0 kts | 13° |
| 2026-05-05 13:49 | 60.18689 | 11.07484 | 681 ft | 8 kts | 13° |
| 2026-05-05 13:49 | 60.18982 | 11.07651 | 683 ft | 78 kts | 15° |
| 2026-05-05 13:49 | 60.19704 | 11.08063 | 679 ft | 135 kts | 16° |
| 2026-05-05 13:50 | 60.20768 | 11.08674 | 741 ft | 176 kts | 13° |
| 2026-05-05 13:50 | 60.21982 | 11.09386 | 1289 ft | 183 kts | 12° |
| 2026-05-05 13:50 | 60.23200 | 11.10086 | 2146 ft | 180 kts | 10° |
| 2026-05-05 13:50 | 60.24426 | 11.10783 | 2755 ft | 190 kts | 11° |
| 2026-05-05 13:51 | 60.25786 | 11.11372 | 3047 ft | 208 kts | 357° |
| 2026-05-05 13:51 | 60.27272 | 11.11051 | 3417 ft | 229 kts | 348° |
| 2026-05-05 13:51 | 60.28928 | 11.10602 | 4044 ft | 250 kts | 355° |
| 2026-05-05 13:51 | 60.30647 | 11.11561 | 4947 ft | 266 kts | 31° |
| 2026-05-05 13:52 | 60.31821 | 11.14443 | 5899 ft | 279 kts | 66° |
| 2026-05-05 13:52 | 60.32071 | 11.18355 | 6846 ft | 287 kts | 93° |
| 2026-05-05 13:52 | 60.32082 | 11.22392 | 7767 ft | 290 kts | 78° |
| 2026-05-05 13:52 | 60.32864 | 11.26096 | 8704 ft | 289 kts | 54° |
| 2026-05-05 13:53 | 60.33924 | 11.29571 | 9662 ft | 294 kts | 59° |
| 2026-05-05 13:53 | 60.34864 | 11.33256 | 10511 ft | 297 kts | 62° |
| 2026-05-05 13:53 | 60.35777 | 11.37105 | 10975 ft | 317 kts | 63° |
| 2026-05-05 13:53 | 60.36755 | 11.41265 | 11313 ft | 336 kts | 62° |
| 2026-05-05 13:54 | 60.37581 | 11.45746 | 11972 ft | 346 kts | 77° |
| 2026-05-05 13:54 | 60.37753 | 11.50616 | 12752 ft | 351 kts | 94° |
| 2026-05-05 13:54 | 60.37224 | 11.55433 | 13527 ft | 354 kts | 112° |
| 2026-05-05 13:54 | 60.36010 | 11.59750 | 14208 ft | 355 kts | 131° |
| 2026-05-05 13:55 | 60.34194 | 11.63118 | 14799 ft | 356 kts | 150° |
| 2026-05-05 13:55 | 60.31951 | 11.65181 | 15379 ft | 354 kts | 169° |
| 2026-05-05 13:55 | 60.29532 | 11.65910 | 16000 ft | 353 kts | 180° |
| 2026-05-05 13:55 | 60.27071 | 11.66366 | 16662 ft | 356 kts | 181° |
| 2026-05-05 13:56 | 60.24592 | 11.66826 | 17318 ft | 360 kts | 182° |
| 2026-05-05 13:56 | 60.22079 | 11.67300 | 17931 ft | 364 kts | 184° |
| 2026-05-05 13:56 | 60.19552 | 11.67776 | 18543 ft | 366 kts | 184° |
| 2026-05-05 13:56 | 60.17001 | 11.68262 | 19129 ft | 369 kts | 185° |
| 2026-05-05 13:57 | 60.14441 | 11.68752 | 19724 ft | 371 kts | 186° |
| 2026-05-05 13:57 | 60.11867 | 11.69241 | 20311 ft | 373 kts | 187° |
| 2026-05-05 13:57 | 60.09316 | 11.69723 | 20867 ft | 375 kts | 187° |
| 2026-05-05 13:57 | 60.06714 | 11.70217 | 21451 ft | 377 kts | 188° |
| 2026-05-05 13:58 | 60.04085 | 11.70710 | 22018 ft | 379 kts | 188° |
| 2026-05-05 13:58 | 60.01454 | 11.71201 | 22569 ft | 380 kts | 189° |
| 2026-05-05 13:58 | 59.98816 | 11.71692 | 23114 ft | 383 kts | 189° |
| 2026-05-05 13:58 | 59.96155 | 11.72189 | 23602 ft | 385 kts | 190° |
| 2026-05-05 13:59 | 59.90787 | 11.73184 | 24248 ft | 391 kts | 189° |
| 2026-05-05 13:59 | 59.88061 | 11.73684 | 24634 ft | 393 kts | 188° |
| 2026-05-05 14:00 | 59.82574 | 11.74700 | 25399 ft | 399 kts | 188° |
| 2026-05-05 14:00 | 59.80753 | 11.75040 | 25651 ft | 400 kts | 188° |
| 2026-05-05 14:00 | 59.77021 | 11.75742 | 26161 ft | 403 kts | 188° |
| 2026-05-05 14:00 | 59.74225 | 11.76267 | 26512 ft | 405 kts | 188° |
| 2026-05-05 14:01 | 59.71408 | 11.76790 | 26833 ft | 407 kts | 187° |
| 2026-05-05 14:01 | 59.68581 | 11.77312 | 27183 ft | 409 kts | 187° |
| 2026-05-05 14:01 | 59.65735 | 11.77844 | 27555 ft | 412 kts | 187° |
| 2026-05-05 14:01 | 59.62870 | 11.78470 | 27857 ft | 415 kts | 185° |
| 2026-05-05 14:02 | 59.59994 | 11.79189 | 28262 ft | 417 kts | 184° |
| 2026-05-05 14:02 | 59.57109 | 11.79952 | 28627 ft | 419 kts | 184° |
| 2026-05-05 14:02 | 59.54216 | 11.80726 | 29015 ft | 420 kts | 184° |
| 2026-05-05 14:02 | 59.51308 | 11.81494 | 29374 ft | 422 kts | 184° |
| 2026-05-05 14:03 | 59.48386 | 11.82246 | 29725 ft | 424 kts | 184° |
| 2026-05-05 14:03 | 59.45459 | 11.82979 | 30049 ft | 425 kts | 184° |
| 2026-05-05 14:03 | 59.42513 | 11.83701 | 30323 ft | 427 kts | 184° |
| 2026-05-05 14:03 | 59.39594 | 11.84415 | 30566 ft | 430 kts | 184° |
| 2026-05-05 14:04 | 59.36614 | 11.85143 | 30810 ft | 432 kts | 184° |
| 2026-05-05 14:04 | 59.33627 | 11.85875 | 30984 ft | 435 kts | 183° |
| 2026-05-05 14:04 | 59.30613 | 11.86616 | 31208 ft | 437 kts | 183° |
| 2026-05-05 14:04 | 59.27589 | 11.87360 | 31459 ft | 439 kts | 183° |
| 2026-05-05 14:05 | 59.24552 | 11.88111 | 31797 ft | 439 kts | 183° |
| 2026-05-05 14:05 | 59.21528 | 11.88862 | 32132 ft | 439 kts | 183° |
| 2026-05-05 14:05 | 59.18498 | 11.89614 | 32473 ft | 439 kts | 183° |
| 2026-05-05 14:05 | 59.15469 | 11.90363 | 32833 ft | 438 kts | 183° |
| 2026-05-05 14:06 | 59.12449 | 11.91104 | 33192 ft | 438 kts | 182° |
| 2026-05-05 14:06 | 59.09419 | 11.91843 | 33555 ft | 438 kts | 182° |
| 2026-05-05 14:06 | 59.06394 | 11.92579 | 33900 ft | 438 kts | 182° |
| 2026-05-05 14:06 | 59.03372 | 11.93311 | 34132 ft | 438 kts | 182° |
| 2026-05-05 14:07 | 59.00346 | 11.94040 | 34408 ft | 438 kts | 182° |
| 2026-05-05 14:07 | 58.97321 | 11.94765 | 34664 ft | 438 kts | 182° |
| 2026-05-05 14:07 | 58.94297 | 11.95491 | 34868 ft | 439 kts | 182° |
| 2026-05-05 14:07 | 58.91271 | 11.96220 | 34928 ft | 436 kts | 182° |
| 2026-05-05 14:08 | 58.85273 | 11.97659 | 34923 ft | 433 kts | 182° |
| 2026-05-05 14:08 | 58.79295 | 11.99084 | 34931 ft | 433 kts | 182° |
| 2026-05-05 14:09 | 58.73313 | 12.00519 | 34928 ft | 433 kts | 182° |
| 2026-05-05 14:09 | 58.67323 | 12.01947 | 34933 ft | 434 kts | 182° |
| 2026-05-05 14:10 | 58.61337 | 12.03362 | 34938 ft | 434 kts | 182° |
| 2026-05-05 14:10 | 58.55347 | 12.04773 | 34945 ft | 434 kts | 182° |
| 2026-05-05 14:11 | 58.49359 | 12.06177 | 34932 ft | 433 kts | 182° |
| 2026-05-05 14:11 | 58.44385 | 12.07346 | 34900 ft | 432 kts | 181° |
| 2026-05-05 14:12 | 58.37439 | 12.08978 | 34941 ft | 433 kts | 181° |
| 2026-05-05 14:12 | 58.31465 | 12.10380 | 34941 ft | 432 kts | 181° |
| 2026-05-05 14:13 | 58.26466 | 12.11539 | 34940 ft | 431 kts | 181° |
| 2026-05-05 14:13 | 58.20510 | 12.12906 | 34945 ft | 431 kts | 181° |
| 2026-05-05 14:14 | 58.14550 | 12.14283 | 34938 ft | 431 kts | 181° |
| 2026-05-05 14:14 | 58.08639 | 12.15644 | 34945 ft | 431 kts | 181° |
| 2026-05-05 14:15 | 58.02689 | 12.17002 | 34948 ft | 431 kts | 182° |
| 2026-05-05 14:15 | 57.96733 | 12.18348 | 34954 ft | 431 kts | 182° |
| 2026-05-05 14:16 | 57.90786 | 12.19686 | 34942 ft | 431 kts | 182° |
| 2026-05-05 14:16 | 57.84829 | 12.21042 | 34932 ft | 431 kts | 181° |
| 2026-05-05 14:17 | 57.78877 | 12.22395 | 34927 ft | 431 kts | 181° |
| 2026-05-05 14:17 | 57.72927 | 12.23737 | 34928 ft | 431 kts | 181° |
| 2026-05-05 14:18 | 57.66973 | 12.25069 | 34929 ft | 430 kts | 181° |
| 2026-05-05 14:18 | 57.61012 | 12.26402 | 34953 ft | 430 kts | 181° |
| 2026-05-05 14:19 | 57.58039 | 12.27061 | 34786 ft | 431 kts | 181° |
| 2026-05-05 14:19 | 57.55024 | 12.27720 | 34053 ft | 441 kts | 181° |
| 2026-05-05 14:19 | 57.51964 | 12.28397 | 33516 ft | 444 kts | 181° |
| 2026-05-05 14:19 | 57.48899 | 12.29086 | 33029 ft | 444 kts | 181° |
| 2026-05-05 14:20 | 57.45826 | 12.29780 | 32525 ft | 445 kts | 181° |
| 2026-05-05 14:20 | 57.42754 | 12.30473 | 32017 ft | 446 kts | 181° |
| 2026-05-05 14:20 | 57.39692 | 12.31164 | 31546 ft | 440 kts | 181° |
| 2026-05-05 14:20 | 57.36673 | 12.31843 | 31006 ft | 434 kts | 181° |
| 2026-05-05 14:21 | 57.33686 | 12.32509 | 30503 ft | 431 kts | 181° |
| 2026-05-05 14:21 | 57.30749 | 12.33154 | 29996 ft | 428 kts | 181° |
| 2026-05-05 14:21 | 57.27770 | 12.33800 | 29488 ft | 424 kts | 181° |
| 2026-05-05 14:21 | 57.24849 | 12.34435 | 29008 ft | 420 kts | 181° |
| 2026-05-05 14:22 | 57.21956 | 12.35067 | 28535 ft | 416 kts | 181° |
| 2026-05-05 14:22 | 57.19093 | 12.35691 | 28072 ft | 413 kts | 181° |
| 2026-05-05 14:22 | 57.16256 | 12.36311 | 27640 ft | 409 kts | 181° |
| 2026-05-05 14:22 | 57.13474 | 12.36921 | 27182 ft | 405 kts | 181° |
| 2026-05-05 14:23 | 57.10654 | 12.37539 | 26745 ft | 401 kts | 181° |
| 2026-05-05 14:23 | 57.07933 | 12.38129 | 26327 ft | 397 kts | 181° |
| 2026-05-05 14:23 | 57.05203 | 12.38719 | 25913 ft | 393 kts | 181° |
| 2026-05-05 14:23 | 57.02502 | 12.39308 | 25487 ft | 389 kts | 180° |
| 2026-05-05 14:24 | 56.99821 | 12.39893 | 25100 ft | 386 kts | 180° |
| 2026-05-05 14:24 | 56.97165 | 12.40465 | 24697 ft | 383 kts | 180° |
| 2026-05-05 14:24 | 56.94526 | 12.41026 | 24289 ft | 381 kts | 180° |
| 2026-05-05 14:24 | 56.91903 | 12.41583 | 23866 ft | 380 kts | 181° |
| 2026-05-05 14:25 | 56.89261 | 12.42142 | 23433 ft | 383 kts | 181° |
| 2026-05-05 14:25 | 56.86606 | 12.42707 | 22971 ft | 385 kts | 180° |
| 2026-05-05 14:25 | 56.83946 | 12.43279 | 22529 ft | 385 kts | 180° |
| 2026-05-05 14:25 | 56.81283 | 12.43852 | 22105 ft | 386 kts | 180° |
| 2026-05-05 14:26 | 56.78634 | 12.44425 | 21688 ft | 382 kts | 180° |
| 2026-05-05 14:26 | 56.76005 | 12.44991 | 21228 ft | 378 kts | 180° |
| 2026-05-05 14:26 | 56.73406 | 12.45554 | 20713 ft | 374 kts | 180° |
| 2026-05-05 14:26 | 56.70838 | 12.46108 | 20284 ft | 369 kts | 180° |
| 2026-05-05 14:27 | 56.68304 | 12.46653 | 19830 ft | 365 kts | 180° |
| 2026-05-05 14:27 | 56.65796 | 12.47188 | 19387 ft | 361 kts | 180° |
| 2026-05-05 14:27 | 56.63317 | 12.47712 | 18946 ft | 356 kts | 180° |
| 2026-05-05 14:27 | 56.60868 | 12.48226 | 18509 ft | 352 kts | 180° |
| 2026-05-05 14:28 | 56.58440 | 12.48734 | 18048 ft | 349 kts | 180° |
| 2026-05-05 14:28 | 56.56046 | 12.49236 | 17603 ft | 344 kts | 180° |
| 2026-05-05 14:28 | 56.53688 | 12.49730 | 17178 ft | 339 kts | 180° |
| 2026-05-05 14:28 | 56.51358 | 12.50222 | 16756 ft | 335 kts | 180° |
| 2026-05-05 14:29 | 56.49057 | 12.50707 | 16336 ft | 331 kts | 180° |
| 2026-05-05 14:29 | 56.46783 | 12.51188 | 15904 ft | 327 kts | 180° |
| 2026-05-05 14:29 | 56.44539 | 12.51661 | 15511 ft | 323 kts | 180° |
| 2026-05-05 14:29 | 56.42318 | 12.52127 | 15109 ft | 320 kts | 180° |
| 2026-05-05 14:30 | 56.40110 | 12.52586 | 14709 ft | 320 kts | 180° |
| 2026-05-05 14:30 | 56.37893 | 12.53039 | 14307 ft | 322 kts | 180° |
| 2026-05-05 14:30 | 56.35660 | 12.53496 | 13895 ft | 324 kts | 180° |
| 2026-05-05 14:30 | 56.33418 | 12.53960 | 13457 ft | 326 kts | 180° |
| 2026-05-05 14:31 | 56.31162 | 12.54428 | 13042 ft | 326 kts | 179° |
| 2026-05-05 14:31 | 56.28907 | 12.54899 | 12635 ft | 326 kts | 179° |
| 2026-05-05 14:31 | 56.26658 | 12.55370 | 12226 ft | 326 kts | 179° |
| 2026-05-05 14:31 | 56.24435 | 12.55830 | 11838 ft | 326 kts | 179° |
| 2026-05-05 14:32 | 56.22178 | 12.56291 | 11424 ft | 326 kts | 179° |
| 2026-05-05 14:32 | 56.19925 | 12.56753 | 11062 ft | 324 kts | 178° |
| 2026-05-05 14:32 | 56.17721 | 12.57217 | 10932 ft | 312 kts | 178° |
| 2026-05-05 14:32 | 56.15615 | 12.57424 | 10804 ft | 297 kts | 185° |
| 2026-05-05 14:33 | 56.13572 | 12.57449 | 10577 ft | 290 kts | 185° |
| 2026-05-05 14:33 | 56.11566 | 12.57467 | 10413 ft | 288 kts | 185° |
| 2026-05-05 14:33 | 56.09570 | 12.57481 | 10210 ft | 287 kts | 185° |
| 2026-05-05 14:33 | 56.07578 | 12.57496 | 10006 ft | 286 kts | 185° |
| 2026-05-05 14:34 | 56.05591 | 12.57511 | 9798 ft | 285 kts | 185° |
| 2026-05-05 14:34 | 56.03611 | 12.57526 | 9581 ft | 284 kts | 185° |
| 2026-05-05 14:34 | 56.01629 | 12.57542 | 9374 ft | 284 kts | 184° |
| 2026-05-05 14:34 | 55.99656 | 12.57559 | 9164 ft | 284 kts | 184° |
| 2026-05-05 14:35 | 55.97683 | 12.57578 | 8970 ft | 284 kts | 184° |
| 2026-05-05 14:35 | 55.95709 | 12.57598 | 8758 ft | 284 kts | 184° |
| 2026-05-05 14:35 | 55.93738 | 12.57619 | 8548 ft | 283 kts | 184° |
| 2026-05-05 14:35 | 55.91770 | 12.57640 | 8330 ft | 283 kts | 183° |
| 2026-05-05 14:36 | 55.89804 | 12.57659 | 8123 ft | 282 kts | 183° |
| 2026-05-05 14:36 | 55.87843 | 12.57624 | 7914 ft | 280 kts | 188° |
| 2026-05-05 14:36 | 55.85955 | 12.56929 | 7709 ft | 276 kts | 202° |
| 2026-05-05 14:36 | 55.84154 | 12.55744 | 7506 ft | 276 kts | 204° |
| 2026-05-05 14:37 | 55.82351 | 12.54567 | 7302 ft | 276 kts | 203° |
| 2026-05-05 14:37 | 55.80553 | 12.53402 | 7101 ft | 276 kts | 204° |
| 2026-05-05 14:37 | 55.78743 | 12.52235 | 6901 ft | 276 kts | 202° |
| 2026-05-05 14:37 | 55.76933 | 12.51069 | 6700 ft | 276 kts | 203° |
| 2026-05-05 14:38 | 55.75127 | 12.49903 | 6504 ft | 276 kts | 202° |
| 2026-05-05 14:38 | 55.73316 | 12.48736 | 6303 ft | 278 kts | 203° |
| 2026-05-05 14:38 | 55.71495 | 12.47566 | 6114 ft | 278 kts | 202° |
| 2026-05-05 14:38 | 55.69677 | 12.46398 | 5971 ft | 278 kts | 202° |
| 2026-05-05 14:39 | 55.67861 | 12.45235 | 5786 ft | 278 kts | 202° |
| 2026-05-05 14:39 | 55.66039 | 12.44069 | 5587 ft | 277 kts | 201° |
| 2026-05-05 14:39 | 55.64255 | 12.42926 | 5395 ft | 276 kts | 201° |
| 2026-05-05 14:39 | 55.62448 | 12.41767 | 5198 ft | 277 kts | 201° |
| 2026-05-05 14:40 | 55.60655 | 12.40547 | 5027 ft | 275 kts | 207° |
| 2026-05-05 14:40 | 55.59062 | 12.38711 | 4999 ft | 273 kts | 223° |
| 2026-05-05 14:40 | 55.57628 | 12.36472 | 4789 ft | 278 kts | 223° |
| 2026-05-05 14:40 | 55.56175 | 12.34224 | 4588 ft | 277 kts | 223° |
| 2026-05-05 14:41 | 55.54730 | 12.32005 | 4424 ft | 274 kts | 222° |
| 2026-05-05 14:41 | 55.53297 | 12.29819 | 4272 ft | 270 kts | 223° |
| 2026-05-05 14:41 | 55.51881 | 12.27679 | 4141 ft | 266 kts | 220° |
| 2026-05-05 14:41 | 55.50236 | 12.26313 | 4010 ft | 263 kts | 187° |
| 2026-05-05 14:42 | 55.48475 | 12.26801 | 3885 ft | 255 kts | 150° |
| 2026-05-05 14:42 | 55.47177 | 12.28790 | 3741 ft | 246 kts | 127° |
| 2026-05-05 14:42 | 55.46065 | 12.31047 | 3601 ft | 242 kts | 128° |
| 2026-05-05 14:42 | 55.45037 | 12.33404 | 3281 ft | 243 kts | 112° |
| 2026-05-05 14:43 | 55.44738 | 12.36235 | 3073 ft | 234 kts | 80° |
| 2026-05-05 14:43 | 55.45315 | 12.38828 | 2874 ft | 225 kts | 50° |
| 2026-05-05 14:43 | 55.46424 | 12.40712 | 2694 ft | 220 kts | 38° |
| 2026-05-05 14:43 | 55.47578 | 12.42462 | 2543 ft | 216 kts | 38° |
| 2026-05-05 14:44 | 55.48682 | 12.44149 | 2393 ft | 205 kts | 38° |
| 2026-05-05 14:44 | 55.49750 | 12.45786 | 2248 ft | 203 kts | 39° |
| 2026-05-05 14:44 | 55.50806 | 12.47401 | 2036 ft | 197 kts | 38° |
| 2026-05-05 14:44 | 55.51776 | 12.48881 | 1971 ft | 173 kts | 38° |
| 2026-05-05 14:45 | 55.52621 | 12.50175 | 1889 ft | 148 kts | 38° |
| 2026-05-05 14:45 | 55.53355 | 12.51297 | 1660 ft | 134 kts | 37° |
| 2026-05-05 14:45 | 55.54043 | 12.52326 | 1400 ft | 126 kts | 38° |
| 2026-05-05 14:45 | 55.54703 | 12.53329 | 1208 ft | 124 kts | 36° |
| 2026-05-05 14:46 | 55.55352 | 12.54324 | 1121 ft | 124 kts | 38° |
| 2026-05-05 14:46 | 55.56005 | 12.55329 | 992 ft | 124 kts | 39° |
| 2026-05-05 14:46 | 55.56644 | 12.56349 | 793 ft | 124 kts | 38° |
| 2026-05-05 14:46 | 55.57281 | 12.57360 | 569 ft | 123 kts | 38° |
| 2026-05-05 14:47 | 55.57924 | 12.58348 | 388 ft | 122 kts | 38° |
| 2026-05-05 14:47 | 55.58561 | 12.59334 | 270 ft | 121 kts | 36° |
| 2026-05-05 14:47 | 55.59193 | 12.60308 | 91 ft | 121 kts | 38° |
| 2026-05-05 14:47 | 55.59803 | 12.61243 | 23 ft | 103 kts | 41° |
| 2026-05-05 14:48 | 55.60212 | 12.61879 | 24 ft | 55 kts | 42° |
| 2026-05-05 14:48 | 55.60421 | 12.62210 | 24 ft | 32 kts | 39° |
| 2026-05-05 14:48 | 55.60574 | 12.62322 | 27 ft | 18 kts | 15° |
| 2026-05-05 14:48 | 55.60704 | 12.62382 | 25 ft | 9 kts | 14° |
| 2026-05-05 14:49 | 55.60793 | 12.62412 | 24 ft | 17 kts | 22° |
| 2026-05-05 14:49 | 55.60904 | 12.62572 | 24 ft | 22 kts | 41° |
| 2026-05-05 14:49 | 55.61024 | 12.62757 | 24 ft | 23 kts | 41° |
| 2026-05-05 14:49 | 55.61135 | 12.62928 | 26 ft | 24 kts | 41° |
| 2026-05-05 14:50 | 55.61261 | 12.63124 | 24 ft | 28 kts | 41° |
| 2026-05-05 14:50 | 55.61377 | 12.63304 | 24 ft | 19 kts | 41° |
| 2026-05-05 14:50 | 55.61484 | 12.63468 | 24 ft | 21 kts | 40° |
| 2026-05-05 14:50 | 55.61614 | 12.63671 | 24 ft | 23 kts | 42° |
| 2026-05-05 14:51 | 55.61739 | 12.63863 | 24 ft | 24 kts | 40° |
| 2026-05-05 14:51 | 55.61852 | 12.64039 | 24 ft | 24 kts | 39° |
| 2026-05-05 14:51 | 55.61988 | 12.64166 | 24 ft | 23 kts | 26° |
| 2026-05-05 14:51 | 55.62140 | 12.64293 | 24 ft | 6 kts | 25° |
| 2026-05-05 14:52 | 55.62160 | 12.64310 | 23 ft | 8 kts | 25° |
| 2026-05-05 14:52 | 55.62246 | 12.64378 | 22 ft | 18 kts | 19° |
| 2026-05-05 14:52 | 55.62371 | 12.64438 | 24 ft | 22 kts | 16° |
| 2026-05-05 14:52 | 55.62486 | 12.64481 | 24 ft | 15 kts | 349° |
| 2026-05-05 14:53 | 55.62553 | 12.64327 | 25 ft | 19 kts | 302° |
| 2026-05-05 14:53 | 55.62609 | 12.64266 | 24 ft | 10 kts | 16° |
| 2026-05-05 14:53 | 55.62688 | 12.64326 | 24 ft | 13 kts | 21° |
| 2026-05-05 14:53 | 55.62724 | 12.64373 | 24 ft | 5 kts | 74° |
| 2026-05-05 14:54 | 55.62717 | 12.64425 | 24 ft | 1 kts | 103° |
| 2026-05-05 14:54 | 55.62715 | 12.64442 | 24 ft | 1 kts | 102° |
| 2026-05-05 14:54 | 55.62714 | 12.64453 | 24 ft | 1 kts | 102° |
| 2026-05-05 14:54 | 55.62713 | 12.64461 | 24 ft | 1 kts | 102° |
| 2026-05-05 14:55 | 55.62713 | 12.64462 | 24 ft | 0 kts | 102° |